sensor_id;sensor_type;location;lat;lon;timestamp;P1;durP1;ratioP1;P2;durP2;ratioP2
6547;SDS011;3307;52.416;16.862;2023-03-12T00:01:08;6.70;;;5.40;;
6547;SDS011;3307;52.416;16.862;2023-03-12T00:03:34;8.50;;;6.00;;
6547;SDS011;3307;52.416;16.862;2023-03-12T00:06:01;7.13;;;6.40;;
6547;SDS011;3307;52.416;16.862;2023-03-12T00:08:27;7.93;;;5.50;;
6547;SDS011;3307;52.416;16.862;2023-03-12T00:10:52;10.00;;;6.50;;
6547;SDS011;3307;52.416;16.862;2023-03-12T00:13:18;9.50;;;5.90;;
6547;SDS011;3307;52.416;16.862;2023-03-12T00:15:43;10.80;;;6.50;;
6547;SDS011;3307;52.416;16.862;2023-03-12T00:18:09;8.43;;;5.77;;
6547;SDS011;3307;52.416;16.862;2023-03-12T00:20:34;7.40;;;5.90;;
6547;SDS011;3307;52.416;16.862;2023-03-12T00:23:00;8.90;;;5.97;;
6547;SDS011;3307;52.416;16.862;2023-03-12T00:25:25;6.90;;;5.50;;
6547;SDS011;3307;52.416;16.862;2023-03-12T00:27:50;7.90;;;5.67;;
6547;SDS011;3307;52.416;16.862;2023-03-12T00:30:16;6.13;;;4.97;;
6547;SDS011;3307;52.416;16.862;2023-03-12T00:32:41;7.07;;;5.60;;
6547;SDS011;3307;52.416;16.862;2023-03-12T00:35:07;7.00;;;5.47;;
6547;SDS011;3307;52.416;16.862;2023-03-12T00:37:33;5.43;;;4.53;;
6547;SDS011;3307;52.416;16.862;2023-03-12T00:39:59;7.37;;;5.87;;
6547;SDS011;3307;52.416;16.862;2023-03-12T00:42:25;9.60;;;6.10;;
6547;SDS011;3307;52.416;16.862;2023-03-12T00:44:51;9.43;;;5.73;;
6547;SDS011;3307;52.416;16.862;2023-03-12T00:47:16;6.33;;;5.10;;
6547;SDS011;3307;52.416;16.862;2023-03-12T00:49:42;6.17;;;5.00;;
6547;SDS011;3307;52.416;16.862;2023-03-12T00:52:07;7.67;;;5.70;;
6547;SDS011;3307;52.416;16.862;2023-03-12T00:54:33;6.43;;;4.80;;
6547;SDS011;3307;52.416;16.862;2023-03-12T00:56:58;6.37;;;4.90;;
6547;SDS011;3307;52.416;16.862;2023-03-12T00:59:24;6.47;;;4.90;;
6547;SDS011;3307;52.416;16.862;2023-03-12T01:01:49;6.60;;;4.67;;
6547;SDS011;3307;52.416;16.862;2023-03-12T01:04:14;7.30;;;4.60;;
6547;SDS011;3307;52.416;16.862;2023-03-12T01:06:41;8.13;;;5.47;;
6547;SDS011;3307;52.416;16.862;2023-03-12T01:09:07;7.60;;;4.83;;
6547;SDS011;3307;52.416;16.862;2023-03-12T01:11:33;7.18;;;5.07;;
6547;SDS011;3307;52.416;16.862;2023-03-12T01:13:59;8.02;;;4.40;;
6547;SDS011;3307;52.416;16.862;2023-03-12T01:16:26;6.88;;;4.38;;
6547;SDS011;3307;52.416;16.862;2023-03-12T01:18:54;6.95;;;4.60;;
6547;SDS011;3307;52.416;16.862;2023-03-12T01:21:23;6.47;;;4.50;;
6547;SDS011;3307;52.416;16.862;2023-03-12T01:23:49;6.90;;;4.72;;
6547;SDS011;3307;52.416;16.862;2023-03-12T01:26:15;7.97;;;4.00;;
6547;SDS011;3307;52.416;16.862;2023-03-12T01:28:40;5.60;;;4.03;;
6547;SDS011;3307;52.416;16.862;2023-03-12T01:31:10;5.20;;;4.10;;
6547;SDS011;3307;52.416;16.862;2023-03-12T01:33:37;5.43;;;4.07;;
6547;SDS011;3307;52.416;16.862;2023-03-12T01:36:03;5.23;;;3.50;;
6547;SDS011;3307;52.416;16.862;2023-03-12T01:38:29;9.27;;;4.25;;
6547;SDS011;3307;52.416;16.862;2023-03-12T01:40:55;5.17;;;3.83;;
6547;SDS011;3307;52.416;16.862;2023-03-12T01:48:31;4.82;;;3.75;;
6547;SDS011;3307;52.416;16.862;2023-03-12T01:51:06;6.85;;;3.78;;
6547;SDS011;3307;52.416;16.862;2023-03-12T01:53:33;4.07;;;3.67;;
6547;SDS011;3307;52.416;16.862;2023-03-12T01:55:59;5.40;;;3.70;;
6547;SDS011;3307;52.416;16.862;2023-03-12T01:58:25;4.40;;;4.00;;
6547;SDS011;3307;52.416;16.862;2023-03-12T02:00:51;4.88;;;3.95;;
6547;SDS011;3307;52.416;16.862;2023-03-12T02:03:16;5.00;;;3.33;;
6547;SDS011;3307;52.416;16.862;2023-03-12T02:05:47;8.37;;;3.70;;
6547;SDS011;3307;52.416;16.862;2023-03-12T02:08:22;4.88;;;4.30;;
6547;SDS011;3307;52.416;16.862;2023-03-12T02:10:48;5.82;;;3.42;;
6547;SDS011;3307;52.416;16.862;2023-03-12T02:13:13;5.80;;;4.13;;
6547;SDS011;3307;52.416;16.862;2023-03-12T02:15:39;7.03;;;3.40;;
6547;SDS011;3307;52.416;16.862;2023-03-12T02:18:05;6.20;;;3.23;;
6547;SDS011;3307;52.416;16.862;2023-03-12T02:23:31;4.63;;;3.80;;
6547;SDS011;3307;52.416;16.862;2023-03-12T02:25:57;4.10;;;3.25;;
6547;SDS011;3307;52.416;16.862;2023-03-12T02:28:25;5.90;;;3.05;;
6547;SDS011;3307;52.416;16.862;2023-03-12T02:30:53;5.35;;;3.80;;
6547;SDS011;3307;52.416;16.862;2023-03-12T02:33:22;5.75;;;3.20;;
6547;SDS011;3307;52.416;16.862;2023-03-12T02:35:47;3.90;;;3.50;;
6547;SDS011;3307;52.416;16.862;2023-03-12T02:41:50;5.75;;;3.28;;
6547;SDS011;3307;52.416;16.862;2023-03-12T02:43:52;6.82;;;3.40;;
6547;SDS011;3307;52.416;16.862;2023-03-12T02:46:26;5.65;;;2.95;;
6547;SDS011;3307;52.416;16.862;2023-03-12T02:48:52;4.35;;;3.65;;
6547;SDS011;3307;52.416;16.862;2023-03-12T02:51:17;5.53;;;3.60;;
6547;SDS011;3307;52.416;16.862;2023-03-12T02:53:43;5.07;;;3.10;;
6547;SDS011;3307;52.416;16.862;2023-03-12T02:56:09;6.20;;;3.00;;
6547;SDS011;3307;52.416;16.862;2023-03-12T02:58:34;5.30;;;2.97;;
6547;SDS011;3307;52.416;16.862;2023-03-12T03:01:01;3.30;;;3.00;;
6547;SDS011;3307;52.416;16.862;2023-03-12T03:03:27;5.00;;;3.00;;
6547;SDS011;3307;52.416;16.862;2023-03-12T03:05:52;6.10;;;4.00;;
6547;SDS011;3307;52.416;16.862;2023-03-12T03:08:17;3.73;;;3.00;;
6547;SDS011;3307;52.416;16.862;2023-03-12T03:10:43;3.23;;;2.67;;
6547;SDS011;3307;52.416;16.862;2023-03-12T03:13:08;5.10;;;3.03;;
6547;SDS011;3307;52.416;16.862;2023-03-12T03:15:34;9.20;;;3.40;;
6547;SDS011;3307;52.416;16.862;2023-03-12T03:17:59;9.00;;;3.37;;
6547;SDS011;3307;52.416;16.862;2023-03-12T03:20:27;5.63;;;3.50;;
6547;SDS011;3307;52.416;16.862;2023-03-12T03:22:53;4.80;;;2.90;;
6547;SDS011;3307;52.416;16.862;2023-03-12T03:25:19;5.57;;;4.37;;
6547;SDS011;3307;52.416;16.862;2023-03-12T03:27:47;4.40;;;2.92;;
6547;SDS011;3307;52.416;16.862;2023-03-12T03:30:12;5.43;;;2.97;;
6547;SDS011;3307;52.416;16.862;2023-03-12T03:32:38;6.03;;;2.70;;
6547;SDS011;3307;52.416;16.862;2023-03-12T03:35:04;5.13;;;3.20;;
6547;SDS011;3307;52.416;16.862;2023-03-12T03:37:29;4.23;;;3.30;;
6547;SDS011;3307;52.416;16.862;2023-03-12T03:39:55;5.97;;;3.27;;
6547;SDS011;3307;52.416;16.862;2023-03-12T03:42:20;6.23;;;3.60;;
6547;SDS011;3307;52.416;16.862;2023-03-12T03:44:46;4.07;;;3.07;;
6547;SDS011;3307;52.416;16.862;2023-03-12T03:47:11;4.13;;;3.00;;
6547;SDS011;3307;52.416;16.862;2023-03-12T03:49:37;4.40;;;2.90;;
6547;SDS011;3307;52.416;16.862;2023-03-12T03:52:02;7.90;;;3.40;;
6547;SDS011;3307;52.416;16.862;2023-03-12T03:54:28;5.43;;;3.10;;
6547;SDS011;3307;52.416;16.862;2023-03-12T03:56:55;7.25;;;3.50;;
6547;SDS011;3307;52.416;16.862;2023-03-12T03:59:20;8.90;;;3.67;;
6547;SDS011;3307;52.416;16.862;2023-03-12T04:01:45;4.63;;;3.57;;
6547;SDS011;3307;52.416;16.862;2023-03-12T04:04:11;4.03;;;3.20;;
6547;SDS011;3307;52.416;16.862;2023-03-12T04:06:36;6.13;;;3.20;;
6547;SDS011;3307;52.416;16.862;2023-03-12T04:09:02;4.93;;;3.33;;
6547;SDS011;3307;52.416;16.862;2023-03-12T04:11:28;3.80;;;3.07;;
6547;SDS011;3307;52.416;16.862;2023-03-12T04:13:53;5.23;;;3.40;;
6547;SDS011;3307;52.416;16.862;2023-03-12T04:16:19;3.20;;;2.50;;
6547;SDS011;3307;52.416;16.862;2023-03-12T04:18:44;6.00;;;3.17;;
6547;SDS011;3307;52.416;16.862;2023-03-12T04:21:10;5.53;;;3.30;;
6547;SDS011;3307;52.416;16.862;2023-03-12T04:23:37;5.03;;;3.35;;
6547;SDS011;3307;52.416;16.862;2023-03-12T04:26:03;4.25;;;3.85;;
6547;SDS011;3307;52.416;16.862;2023-03-12T04:28:29;4.23;;;2.73;;
6547;SDS011;3307;52.416;16.862;2023-03-12T04:30:55;4.20;;;2.93;;
6547;SDS011;3307;52.416;16.862;2023-03-12T04:33:28;5.88;;;3.45;;
6547;SDS011;3307;52.416;16.862;2023-03-12T04:35:55;2.50;;;2.30;;
6547;SDS011;3307;52.416;16.862;2023-03-12T04:38:21;3.20;;;2.30;;
6547;SDS011;3307;52.416;16.862;2023-03-12T04:40:56;6.55;;;3.03;;
6547;SDS011;3307;52.416;16.862;2023-03-12T04:43:25;5.72;;;3.08;;
6547;SDS011;3307;52.416;16.862;2023-03-12T04:45:51;4.38;;;3.00;;
6547;SDS011;3307;52.416;16.862;2023-03-12T04:48:16;3.43;;;2.63;;
6547;SDS011;3307;52.416;16.862;2023-03-12T04:50:42;9.23;;;3.43;;
6547;SDS011;3307;52.416;16.862;2023-03-12T04:53:08;3.90;;;3.60;;
6547;SDS011;3307;52.416;16.862;2023-03-12T04:55:34;3.63;;;2.80;;
6547;SDS011;3307;52.416;16.862;2023-03-12T04:57:59;3.77;;;2.97;;
6547;SDS011;3307;52.416;16.862;2023-03-12T05:00:25;4.77;;;3.33;;
6547;SDS011;3307;52.416;16.862;2023-03-12T05:02:51;4.60;;;3.23;;
6547;SDS011;3307;52.416;16.862;2023-03-12T05:05:17;5.68;;;3.45;;
6547;SDS011;3307;52.416;16.862;2023-03-12T05:07:43;3.80;;;3.00;;
6547;SDS011;3307;52.416;16.862;2023-03-12T05:10:08;4.30;;;3.90;;
6547;SDS011;3307;52.416;16.862;2023-03-12T05:12:34;3.08;;;2.78;;
6547;SDS011;3307;52.416;16.862;2023-03-12T05:15:00;4.37;;;3.40;;
6547;SDS011;3307;52.416;16.862;2023-03-12T05:17:25;4.80;;;2.93;;
6547;SDS011;3307;52.416;16.862;2023-03-12T05:19:50;6.47;;;3.00;;
6547;SDS011;3307;52.416;16.862;2023-03-12T05:22:16;4.00;;;3.10;;
6547;SDS011;3307;52.416;16.862;2023-03-12T05:24:42;5.35;;;3.55;;
6547;SDS011;3307;52.416;16.862;2023-03-12T05:27:07;4.73;;;2.83;;
6547;SDS011;3307;52.416;16.862;2023-03-12T05:29:33;4.27;;;3.00;;
6547;SDS011;3307;52.416;16.862;2023-03-12T05:32:00;4.25;;;2.97;;
6547;SDS011;3307;52.416;16.862;2023-03-12T05:34:26;3.47;;;3.13;;
6547;SDS011;3307;52.416;16.862;2023-03-12T05:36:54;4.13;;;3.70;;
6547;SDS011;3307;52.416;16.862;2023-03-12T05:39:20;4.65;;;3.17;;
6547;SDS011;3307;52.416;16.862;2023-03-12T05:41:45;4.67;;;3.80;;
6547;SDS011;3307;52.416;16.862;2023-03-12T05:44:11;6.93;;;3.23;;
6547;SDS011;3307;52.416;16.862;2023-03-12T05:46:37;3.50;;;3.20;;
6547;SDS011;3307;52.416;16.862;2023-03-12T05:49:03;4.57;;;3.50;;
6547;SDS011;3307;52.416;16.862;2023-03-12T05:51:28;6.57;;;3.10;;
6547;SDS011;3307;52.416;16.862;2023-03-12T05:53:54;4.73;;;3.20;;
6547;SDS011;3307;52.416;16.862;2023-03-12T05:56:19;4.50;;;3.30;;
6547;SDS011;3307;52.416;16.862;2023-03-12T05:58:46;3.80;;;3.17;;
6547;SDS011;3307;52.416;16.862;2023-03-12T06:01:13;6.65;;;4.20;;
6547;SDS011;3307;52.416;16.862;2023-03-12T06:03:41;4.28;;;3.60;;
6547;SDS011;3307;52.416;16.862;2023-03-12T06:06:07;6.40;;;3.40;;
6547;SDS011;3307;52.416;16.862;2023-03-12T06:08:33;7.70;;;3.35;;
6547;SDS011;3307;52.416;16.862;2023-03-12T06:10:58;3.77;;;2.80;;
6547;SDS011;3307;52.416;16.862;2023-03-12T06:13:24;3.80;;;3.43;;
6547;SDS011;3307;52.416;16.862;2023-03-12T06:15:51;6.07;;;3.75;;
6547;SDS011;3307;52.416;16.862;2023-03-12T06:18:16;7.20;;;4.13;;
6547;SDS011;3307;52.416;16.862;2023-03-12T06:20:42;4.43;;;3.90;;
6547;SDS011;3307;52.416;16.862;2023-03-12T06:23:07;6.20;;;3.20;;
6547;SDS011;3307;52.416;16.862;2023-03-12T06:25:33;6.20;;;3.50;;
6547;SDS011;3307;52.416;16.862;2023-03-12T06:27:58;5.87;;;3.20;;
6547;SDS011;3307;52.416;16.862;2023-03-12T06:30:24;5.07;;;3.23;;
6547;SDS011;3307;52.416;16.862;2023-03-12T06:32:51;5.32;;;4.47;;
6547;SDS011;3307;52.416;16.862;2023-03-12T06:35:16;6.60;;;3.57;;
6547;SDS011;3307;52.416;16.862;2023-03-12T06:37:41;4.20;;;3.30;;
6547;SDS011;3307;52.416;16.862;2023-03-12T06:40:07;6.00;;;3.43;;
6547;SDS011;3307;52.416;16.862;2023-03-12T06:42:35;3.67;;;3.28;;
6547;SDS011;3307;52.416;16.862;2023-03-12T06:45:00;4.60;;;3.50;;
6547;SDS011;3307;52.416;16.862;2023-03-12T06:47:26;3.80;;;3.30;;
6547;SDS011;3307;52.416;16.862;2023-03-12T06:49:51;4.10;;;3.40;;
6547;SDS011;3307;52.416;16.862;2023-03-12T06:52:17;5.37;;;3.83;;
6547;SDS011;3307;52.416;16.862;2023-03-12T06:54:42;4.40;;;3.50;;
6547;SDS011;3307;52.416;16.862;2023-03-12T06:57:08;4.17;;;3.40;;
6547;SDS011;3307;52.416;16.862;2023-03-12T06:59:33;6.80;;;4.90;;
6547;SDS011;3307;52.416;16.862;2023-03-12T07:01:59;5.87;;;3.90;;
6547;SDS011;3307;52.416;16.862;2023-03-12T07:04:24;5.80;;;3.87;;
6547;SDS011;3307;52.416;16.862;2023-03-12T07:06:49;4.43;;;4.00;;
6547;SDS011;3307;52.416;16.862;2023-03-12T07:09:18;12.23;;;3.53;;
6547;SDS011;3307;52.416;16.862;2023-03-12T07:11:44;4.93;;;3.28;;
6547;SDS011;3307;52.416;16.862;2023-03-12T07:14:09;6.90;;;3.53;;
6547;SDS011;3307;52.416;16.862;2023-03-12T07:16:35;5.90;;;3.50;;
6547;SDS011;3307;52.416;16.862;2023-03-12T07:19:00;3.23;;;2.80;;
6547;SDS011;3307;52.416;16.862;2023-03-12T07:21:26;4.77;;;3.20;;
6547;SDS011;3307;52.416;16.862;2023-03-12T07:23:51;5.90;;;3.67;;
6547;SDS011;3307;52.416;16.862;2023-03-12T07:26:17;7.33;;;3.93;;
6547;SDS011;3307;52.416;16.862;2023-03-12T07:28:43;4.90;;;3.05;;
6547;SDS011;3307;52.416;16.862;2023-03-12T07:31:09;5.90;;;3.47;;
6547;SDS011;3307;52.416;16.862;2023-03-12T07:33:34;4.00;;;3.23;;
6547;SDS011;3307;52.416;16.862;2023-03-12T07:36:00;6.27;;;3.90;;
6547;SDS011;3307;52.416;16.862;2023-03-12T07:38:25;4.33;;;3.13;;
6547;SDS011;3307;52.416;16.862;2023-03-12T07:40:52;4.60;;;2.50;;
6547;SDS011;3307;52.416;16.862;2023-03-12T07:43:18;4.00;;;2.67;;
6547;SDS011;3307;52.416;16.862;2023-03-12T07:45:44;6.23;;;3.07;;
6547;SDS011;3307;52.416;16.862;2023-03-12T07:48:09;7.13;;;2.63;;
6547;SDS011;3307;52.416;16.862;2023-03-12T07:50:35;3.77;;;2.23;;
6547;SDS011;3307;52.416;16.862;2023-03-12T07:53:01;5.03;;;2.85;;
6547;SDS011;3307;52.416;16.862;2023-03-12T07:55:28;3.78;;;2.63;;
6547;SDS011;3307;52.416;16.862;2023-03-12T07:57:54;2.60;;;2.40;;
6547;SDS011;3307;52.416;16.862;2023-03-12T08:00:22;3.90;;;2.45;;
6547;SDS011;3307;52.416;16.862;2023-03-12T08:02:48;5.60;;;2.72;;
6547;SDS011;3307;52.416;16.862;2023-03-12T08:05:13;4.60;;;3.00;;
6547;SDS011;3307;52.416;16.862;2023-03-12T08:07:39;5.10;;;3.03;;
6547;SDS011;3307;52.416;16.862;2023-03-12T08:10:05;2.30;;;2.10;;
6547;SDS011;3307;52.416;16.862;2023-03-12T08:12:32;4.47;;;2.58;;
6547;SDS011;3307;52.416;16.862;2023-03-12T08:14:58;4.33;;;2.60;;
6547;SDS011;3307;52.416;16.862;2023-03-12T08:17:23;5.43;;;2.80;;
6547;SDS011;3307;52.416;16.862;2023-03-12T08:19:49;7.10;;;2.50;;
6547;SDS011;3307;52.416;16.862;2023-03-12T08:22:14;5.60;;;2.40;;
6547;SDS011;3307;52.416;16.862;2023-03-12T08:24:39;5.07;;;3.00;;
6547;SDS011;3307;52.416;16.862;2023-03-12T08:27:05;5.90;;;2.63;;
6547;SDS011;3307;52.416;16.862;2023-03-12T08:29:30;7.63;;;3.40;;
6547;SDS011;3307;52.416;16.862;2023-03-12T08:31:57;6.07;;;3.33;;
6547;SDS011;3307;52.416;16.862;2023-03-12T08:34:23;5.85;;;2.90;;
6547;SDS011;3307;52.416;16.862;2023-03-12T08:36:49;4.40;;;2.50;;
6547;SDS011;3307;52.416;16.862;2023-03-12T08:39:14;3.43;;;2.47;;
6547;SDS011;3307;52.416;16.862;2023-03-12T08:41:40;5.00;;;2.40;;
6547;SDS011;3307;52.416;16.862;2023-03-12T08:44:05;6.03;;;2.37;;
6547;SDS011;3307;52.416;16.862;2023-03-12T08:46:30;4.27;;;3.33;;
6547;SDS011;3307;52.416;16.862;2023-03-12T08:48:56;4.57;;;3.57;;
6547;SDS011;3307;52.416;16.862;2023-03-12T08:51:21;4.33;;;2.60;;
6547;SDS011;3307;52.416;16.862;2023-03-12T08:53:47;10.40;;;2.90;;
6547;SDS011;3307;52.416;16.862;2023-03-12T08:56:12;4.20;;;2.77;;
6547;SDS011;3307;52.416;16.862;2023-03-12T08:58:38;3.93;;;2.87;;
6547;SDS011;3307;52.416;16.862;2023-03-12T09:01:07;6.20;;;2.47;;
6547;SDS011;3307;52.416;16.862;2023-03-12T09:03:36;5.03;;;3.28;;
6547;SDS011;3307;52.416;16.862;2023-03-12T09:06:06;4.03;;;2.80;;
6547;SDS011;3307;52.416;16.862;2023-03-12T09:08:37;4.05;;;2.45;;
6547;SDS011;3307;52.416;16.862;2023-03-12T09:11:03;4.38;;;2.60;;
6547;SDS011;3307;52.416;16.862;2023-03-12T09:13:29;3.27;;;2.40;;
6547;SDS011;3307;52.416;16.862;2023-03-12T09:15:58;3.00;;;2.70;;
6547;SDS011;3307;52.416;16.862;2023-03-12T09:18:27;3.83;;;2.50;;
6547;SDS011;3307;52.416;16.862;2023-03-12T09:20:53;5.07;;;2.78;;
6547;SDS011;3307;52.416;16.862;2023-03-12T09:23:19;3.53;;;2.40;;
6547;SDS011;3307;52.416;16.862;2023-03-12T09:25:44;3.27;;;2.23;;
6547;SDS011;3307;52.416;16.862;2023-03-12T09:28:10;3.55;;;2.83;;
6547;SDS011;3307;52.416;16.862;2023-03-12T09:30:36;3.73;;;2.40;;
6547;SDS011;3307;52.416;16.862;2023-03-12T09:33:01;3.83;;;2.50;;
6547;SDS011;3307;52.416;16.862;2023-03-12T09:35:27;6.27;;;2.83;;
6547;SDS011;3307;52.416;16.862;2023-03-12T09:37:52;3.33;;;2.63;;
6547;SDS011;3307;52.416;16.862;2023-03-12T09:40:20;3.97;;;2.40;;
6547;SDS011;3307;52.416;16.862;2023-03-12T09:45:37;4.65;;;2.38;;
6547;SDS011;3307;52.416;16.862;2023-03-12T09:48:12;3.45;;;2.30;;
6547;SDS011;3307;52.416;16.862;2023-03-12T09:50:43;2.60;;;2.30;;
6547;SDS011;3307;52.416;16.862;2023-03-12T09:55:52;5.57;;;2.80;;
6547;SDS011;3307;52.416;16.862;2023-03-12T10:01:38;6.55;;;2.63;;
6547;SDS011;3307;52.416;16.862;2023-03-12T10:14:31;4.87;;;3.57;;
6547;SDS011;3307;52.416;16.862;2023-03-12T10:20:18;5.05;;;2.35;;
6547;SDS011;3307;52.416;16.862;2023-03-12T10:25:57;5.35;;;2.90;;
6547;SDS011;3307;52.416;16.862;2023-03-12T10:28:36;3.17;;;2.35;;
6547;SDS011;3307;52.416;16.862;2023-03-12T10:31:11;4.10;;;2.75;;
6547;SDS011;3307;52.416;16.862;2023-03-12T10:36:14;2.13;;;1.87;;
6547;SDS011;3307;52.416;16.862;2023-03-12T10:38:44;3.70;;;2.63;;
6547;SDS011;3307;52.416;16.862;2023-03-12T10:41:13;2.50;;;2.10;;
6547;SDS011;3307;52.416;16.862;2023-03-12T10:43:49;4.30;;;2.60;;
6547;SDS011;3307;52.416;16.862;2023-03-12T10:46:26;5.50;;;2.40;;
6547;SDS011;3307;52.416;16.862;2023-03-12T10:49:22;4.03;;;2.45;;
6547;SDS011;3307;52.416;16.862;2023-03-12T10:51:52;3.47;;;2.80;;
6547;SDS011;3307;52.416;16.862;2023-03-12T10:54:20;4.35;;;2.50;;
6547;SDS011;3307;52.416;16.862;2023-03-12T10:56:48;6.32;;;4.63;;
6547;SDS011;3307;52.416;16.862;2023-03-12T10:59:19;5.35;;;3.22;;
6547;SDS011;3307;52.416;16.862;2023-03-12T11:01:49;4.95;;;2.55;;
6547;SDS011;3307;52.416;16.862;2023-03-12T11:04:21;5.10;;;3.30;;
6547;SDS011;3307;52.416;16.862;2023-03-12T11:12:32;3.45;;;2.40;;
6547;SDS011;3307;52.416;16.862;2023-03-12T11:15:15;3.63;;;2.30;;
6547;SDS011;3307;52.416;16.862;2023-03-12T11:17:44;2.17;;;1.55;;
6547;SDS011;3307;52.416;16.862;2023-03-12T11:22:52;3.85;;;2.00;;
6547;SDS011;3307;52.416;16.862;2023-03-12T11:28:11;6.90;;;4.10;;
6547;SDS011;3307;52.416;16.862;2023-03-12T11:30:38;5.88;;;3.13;;
6547;SDS011;3307;52.416;16.862;2023-03-12T11:33:04;7.85;;;4.10;;
6547;SDS011;3307;52.416;16.862;2023-03-12T11:35:57;11.53;;;5.70;;
6547;SDS011;3307;52.416;16.862;2023-03-12T11:38:40;10.43;;;5.93;;
6547;SDS011;3307;52.416;16.862;2023-03-12T11:54:42;8.40;;;4.35;;
6547;SDS011;3307;52.416;16.862;2023-03-12T12:00:18;5.30;;;2.60;;
6547;SDS011;3307;52.416;16.862;2023-03-12T12:05:21;5.95;;;3.05;;
6547;SDS011;3307;52.416;16.862;2023-03-12T12:13:10;10.13;;;5.38;;
6547;SDS011;3307;52.416;16.862;2023-03-12T12:15:59;6.18;;;3.35;;
6547;SDS011;3307;52.416;16.862;2023-03-12T12:21:02;8.85;;;3.10;;
6547;SDS011;3307;52.416;16.862;2023-03-12T12:23:48;5.03;;;3.05;;
6547;SDS011;3307;52.416;16.862;2023-03-12T12:26:22;6.25;;;2.83;;
6547;SDS011;3307;52.416;16.862;2023-03-12T12:32:00;5.30;;;2.30;;
6547;SDS011;3307;52.416;16.862;2023-03-12T12:34:48;4.00;;;3.17;;
6547;SDS011;3307;52.416;16.862;2023-03-12T12:45:36;6.22;;;2.28;;
6547;SDS011;3307;52.416;16.862;2023-03-12T12:48:16;4.82;;;2.63;;
6547;SDS011;3307;52.416;16.862;2023-03-12T12:50:43;3.17;;;2.40;;
6547;SDS011;3307;52.416;16.862;2023-03-12T12:53:20;4.65;;;2.50;;
6547;SDS011;3307;52.416;16.862;2023-03-12T13:01:20;4.88;;;3.20;;
6547;SDS011;3307;52.416;16.862;2023-03-12T13:03:46;5.10;;;2.67;;
6547;SDS011;3307;52.416;16.862;2023-03-12T13:06:12;3.33;;;2.20;;
6547;SDS011;3307;52.416;16.862;2023-03-12T13:13:38;5.20;;;2.35;;
6547;SDS011;3307;52.416;16.862;2023-03-12T13:18:59;3.42;;;2.25;;
6547;SDS011;3307;52.416;16.862;2023-03-12T13:22:11;6.28;;;2.70;;
6547;SDS011;3307;52.416;16.862;2023-03-12T13:31:55;3.50;;;2.80;;
6547;SDS011;3307;52.416;16.862;2023-03-12T13:36:51;6.90;;;3.03;;
6547;SDS011;3307;52.416;16.862;2023-03-12T13:39:27;4.53;;;2.45;;
6547;SDS011;3307;52.416;16.862;2023-03-12T13:41:58;3.50;;;2.20;;
6547;SDS011;3307;52.416;16.862;2023-03-12T13:47:00;4.25;;;2.15;;
6547;SDS011;3307;52.416;16.862;2023-03-12T13:52:19;4.20;;;2.78;;
6547;SDS011;3307;52.416;16.862;2023-03-12T13:54:47;5.55;;;3.72;;
6547;SDS011;3307;52.416;16.862;2023-03-12T13:59:59;2.95;;;1.90;;
6547;SDS011;3307;52.416;16.862;2023-03-12T14:02:32;9.00;;;5.83;;
6547;SDS011;3307;52.416;16.862;2023-03-12T14:05:17;6.20;;;3.20;;
6547;SDS011;3307;52.416;16.862;2023-03-12T14:13:18;6.72;;;5.25;;
6547;SDS011;3307;52.416;16.862;2023-03-12T14:18:21;3.65;;;2.70;;
6547;SDS011;3307;52.416;16.862;2023-03-12T14:20:57;4.38;;;2.65;;
6547;SDS011;3307;52.416;16.862;2023-03-12T14:23:24;5.00;;;2.70;;
6547;SDS011;3307;52.416;16.862;2023-03-12T14:25:54;6.00;;;3.05;;
6547;SDS011;3307;52.416;16.862;2023-03-12T14:28:22;6.55;;;3.50;;
6547;SDS011;3307;52.416;16.862;2023-03-12T14:33:13;4.10;;;3.67;;
6547;SDS011;3307;52.416;16.862;2023-03-12T14:35:48;7.20;;;4.70;;
6547;SDS011;3307;52.416;16.862;2023-03-12T14:38:29;6.97;;;4.25;;
6547;SDS011;3307;52.416;16.862;2023-03-12T14:41:01;4.60;;;3.95;;
6547;SDS011;3307;52.416;16.862;2023-03-12T14:43:28;3.30;;;3.00;;
6547;SDS011;3307;52.416;16.862;2023-03-12T14:45:58;4.25;;;2.85;;
6547;SDS011;3307;52.416;16.862;2023-03-12T14:48:29;4.25;;;3.03;;
6547;SDS011;3307;52.416;16.862;2023-03-12T14:50:59;4.43;;;3.25;;
6547;SDS011;3307;52.416;16.862;2023-03-12T14:53:26;7.72;;;4.32;;
6547;SDS011;3307;52.416;16.862;2023-03-12T14:56:21;6.10;;;3.55;;
6547;SDS011;3307;52.416;16.862;2023-03-12T14:58:51;5.72;;;3.97;;
6547;SDS011;3307;52.416;16.862;2023-03-12T15:01:18;9.43;;;5.07;;
6547;SDS011;3307;52.416;16.862;2023-03-12T15:04:06;11.38;;;6.25;;
6547;SDS011;3307;52.416;16.862;2023-03-12T15:06:45;9.63;;;4.80;;
6547;SDS011;3307;52.416;16.862;2023-03-12T15:09:30;6.95;;;3.70;;
6547;SDS011;3307;52.416;16.862;2023-03-12T15:11:58;5.43;;;3.28;;
6547;SDS011;3307;52.416;16.862;2023-03-12T15:14:26;5.75;;;3.05;;
6547;SDS011;3307;52.416;16.862;2023-03-12T15:16:53;6.40;;;3.33;;
6547;SDS011;3307;52.416;16.862;2023-03-12T15:19:20;8.37;;;5.47;;
6547;SDS011;3307;52.416;16.862;2023-03-12T15:21:50;6.97;;;6.00;;
6547;SDS011;3307;52.416;16.862;2023-03-12T15:24:15;12.23;;;7.07;;
6547;SDS011;3307;52.416;16.862;2023-03-12T15:26:42;8.40;;;5.70;;
6547;SDS011;3307;52.416;16.862;2023-03-12T15:29:15;5.90;;;3.60;;
6547;SDS011;3307;52.416;16.862;2023-03-12T15:31:58;6.10;;;3.20;;
6547;SDS011;3307;52.416;16.862;2023-03-12T15:36:56;6.03;;;3.80;;
6547;SDS011;3307;52.416;16.862;2023-03-12T15:39:32;6.07;;;3.80;;
6547;SDS011;3307;52.416;16.862;2023-03-12T15:41:59;6.97;;;4.95;;
6547;SDS011;3307;52.416;16.862;2023-03-12T15:44:27;6.57;;;4.05;;
6547;SDS011;3307;52.416;16.862;2023-03-12T15:47:05;6.70;;;4.18;;
6547;SDS011;3307;52.416;16.862;2023-03-12T15:49:35;8.43;;;5.60;;
6547;SDS011;3307;52.416;16.862;2023-03-12T15:55:05;11.00;;;6.43;;
6547;SDS011;3307;52.416;16.862;2023-03-12T15:57:34;7.57;;;5.32;;
6547;SDS011;3307;52.416;16.862;2023-03-12T16:02:45;9.50;;;7.10;;
6547;SDS011;3307;52.416;16.862;2023-03-12T16:05:17;13.30;;;7.82;;
6547;SDS011;3307;52.416;16.862;2023-03-12T16:07:44;10.75;;;7.55;;
6547;SDS011;3307;52.416;16.862;2023-03-12T16:10:13;11.40;;;8.20;;
6547;SDS011;3307;52.416;16.862;2023-03-12T16:12:40;12.40;;;8.95;;
6547;SDS011;3307;52.416;16.862;2023-03-12T16:15:14;13.55;;;9.25;;
6547;SDS011;3307;52.416;16.862;2023-03-12T16:17:41;11.57;;;8.02;;
6547;SDS011;3307;52.416;16.862;2023-03-12T16:20:11;14.25;;;10.48;;
6547;SDS011;3307;52.416;16.862;2023-03-12T16:22:38;13.98;;;9.73;;
6547;SDS011;3307;52.416;16.862;2023-03-12T16:25:04;17.93;;;9.93;;
6547;SDS011;3307;52.416;16.862;2023-03-12T16:27:30;15.40;;;10.20;;
6547;SDS011;3307;52.416;16.862;2023-03-12T16:29:56;13.63;;;9.27;;
6547;SDS011;3307;52.416;16.862;2023-03-12T16:32:21;21.20;;;12.63;;
6547;SDS011;3307;52.416;16.862;2023-03-12T16:34:47;24.97;;;16.10;;
6547;SDS011;3307;52.416;16.862;2023-03-12T16:37:13;30.40;;;18.73;;
6547;SDS011;3307;52.416;16.862;2023-03-12T16:39:38;33.33;;;26.10;;
6547;SDS011;3307;52.416;16.862;2023-03-12T16:42:05;32.07;;;21.33;;
6547;SDS011;3307;52.416;16.862;2023-03-12T16:44:37;31.15;;;21.55;;
6547;SDS011;3307;52.416;16.862;2023-03-12T16:47:04;29.52;;;19.90;;
6547;SDS011;3307;52.416;16.862;2023-03-12T16:49:36;31.70;;;19.90;;
6547;SDS011;3307;52.416;16.862;2023-03-12T16:52:01;28.33;;;18.13;;
6547;SDS011;3307;52.416;16.862;2023-03-12T16:54:55;22.70;;;15.85;;
6547;SDS011;3307;52.416;16.862;2023-03-12T16:57:25;20.70;;;14.20;;
6547;SDS011;3307;52.416;16.862;2023-03-12T16:59:54;19.35;;;12.43;;
6547;SDS011;3307;52.416;16.862;2023-03-12T17:02:19;18.33;;;11.17;;
6547;SDS011;3307;52.416;16.862;2023-03-12T17:04:45;14.77;;;10.53;;
6547;SDS011;3307;52.416;16.862;2023-03-12T17:07:13;14.52;;;10.93;;
6547;SDS011;3307;52.416;16.862;2023-03-12T17:09:39;14.23;;;10.52;;
6547;SDS011;3307;52.416;16.862;2023-03-12T17:12:05;12.97;;;10.53;;
6547;SDS011;3307;52.416;16.862;2023-03-12T17:14:31;16.00;;;11.13;;
6547;SDS011;3307;52.416;16.862;2023-03-12T17:16:56;17.47;;;11.43;;
6547;SDS011;3307;52.416;16.862;2023-03-12T17:19:22;16.87;;;12.53;;
6547;SDS011;3307;52.416;16.862;2023-03-12T17:21:47;16.60;;;11.63;;